createdAt,value
2023-04-16T00:00:41.431Z,14.20
2023-04-16T00:03:10.761Z,14.20
2023-04-16T00:05:40.119Z,14.10
2023-04-16T00:08:10.605Z,14.10
2023-04-16T00:10:39.814Z,14.00
2023-04-16T00:13:09.270Z,14.00
2023-04-16T00:15:40.173Z,14.00
2023-04-16T00:18:09.485Z,14.00
2023-04-16T00:20:38.666Z,13.90
2023-04-16T00:23:08.146Z,13.90
2023-04-16T00:25:37.404Z,13.80
2023-04-16T00:28:07.358Z,13.70
2023-04-16T00:30:39.166Z,13.70
2023-04-16T00:33:08.350Z,13.60
2023-04-16T00:35:37.451Z,13.70
2023-04-16T00:38:06.605Z,13.60
2023-04-16T00:40:35.661Z,13.60
2023-04-16T00:43:05.367Z,13.50
2023-04-16T00:45:34.821Z,13.60
2023-04-16T00:48:06.609Z,13.50
2023-04-16T00:50:36.305Z,13.50
2023-04-16T00:53:05.739Z,13.50
2023-04-16T00:55:34.799Z,13.40
2023-04-16T00:58:05.402Z,13.40
2023-04-16T01:00:35.014Z,13.30
2023-04-16T01:03:24.857Z,13.40
2023-04-16T01:05:54.128Z,13.20
2023-04-16T01:08:23.717Z,13.10
2023-04-16T01:10:52.981Z,13.10
2023-04-16T01:13:21.939Z,13.10
2023-04-16T01:15:51.768Z,13.00
2023-04-16T01:18:22.454Z,13.00
2023-04-16T01:20:53.657Z,13.00
2023-04-16T01:23:22.894Z,13.00
2023-04-16T01:25:51.945Z,13.00
2023-04-16T01:28:20.855Z,12.90
2023-04-16T01:30:50.029Z,12.90
2023-04-16T01:33:30.990Z,13.00
2023-04-16T01:36:01.583Z,12.90
2023-04-16T01:38:30.644Z,12.90
2023-04-16T01:41:02.143Z,12.90
2023-04-16T01:43:31.175Z,12.90
2023-04-16T01:46:13.864Z,13.00
2023-04-16T01:48:43.063Z,13.00
2023-04-16T01:51:13.581Z,12.90
2023-04-16T01:53:42.507Z,12.90
2023-04-16T01:56:11.738Z,12.90
2023-04-16T01:58:41.620Z,12.90
2023-04-16T02:01:11.092Z,13.00
2023-04-16T02:03:41.608Z,12.90
2023-04-16T02:06:10.754Z,12.90
2023-04-16T02:08:41.176Z,12.90
2023-04-16T02:11:10.243Z,12.90
2023-04-16T02:13:39.364Z,12.90
2023-04-16T02:16:09.349Z,12.90
2023-04-16T02:18:56.055Z,12.90
2023-04-16T02:21:26.502Z,12.90
2023-04-16T02:23:57.722Z,12.90
2023-04-16T02:26:30.526Z,12.90
2023-04-16T02:29:05.374Z,13.00
2023-04-16T02:31:43.664Z,13.00
2023-04-16T02:34:14.312Z,13.00
2023-04-16T02:36:44.166Z,13.00
2023-04-16T02:39:14.772Z,13.00
2023-04-16T02:41:43.919Z,13.00
2023-04-16T02:44:12.859Z,13.10
2023-04-16T02:46:41.947Z,13.10
2023-04-16T02:49:11.120Z,13.10
2023-04-16T02:51:40.276Z,13.10
2023-04-16T02:54:09.432Z,13.20
2023-04-16T02:56:39.751Z,13.20
2023-04-16T02:59:09.029Z,13.20
2023-04-16T03:01:38.314Z,13.20
2023-04-16T03:04:07.546Z,13.20
2023-04-16T03:06:36.696Z,13.20
2023-04-16T03:09:05.930Z,13.20
2023-04-16T03:11:34.905Z,13.20
2023-04-16T03:14:05.322Z,13.30
2023-04-16T03:16:34.395Z,13.30
2023-04-16T03:19:03.294Z,13.30
2023-04-16T03:21:32.400Z,13.30
2023-04-16T03:24:01.435Z,13.30
2023-04-16T03:26:30.387Z,13.30
2023-04-16T03:28:59.636Z,13.30
2023-04-16T03:31:32.595Z,13.30
2023-04-16T03:34:20.502Z,13.30
2023-04-16T03:36:49.827Z,13.30
2023-04-16T03:39:19.195Z,13.20
2023-04-16T03:41:48.605Z,13.20
2023-04-16T03:44:17.513Z,13.20
2023-04-16T03:46:49.197Z,13.20
2023-04-16T03:49:18.826Z,13.20
2023-04-16T03:51:47.915Z,13.20
2023-04-16T03:54:17.078Z,13.20
2023-04-16T03:56:53.039Z,13.20
2023-04-16T03:59:40.784Z,13.30
2023-04-16T04:02:11.561Z,13.30
2023-04-16T04:04:41.310Z,13.30
2023-04-16T04:07:11.622Z,13.30
2023-04-16T04:09:41.012Z,13.30
2023-04-16T04:12:10.436Z,13.30
2023-04-16T04:14:41.070Z,13.30
2023-04-16T04:17:11.871Z,13.30
2023-04-16T04:19:47.145Z,13.30
2023-04-16T04:22:24.325Z,13.30
2023-04-16T04:24:54.916Z,13.30
2023-04-16T04:27:24.017Z,13.30
2023-04-16T04:29:53.226Z,13.40
2023-04-16T04:32:23.647Z,13.40
2023-04-16T04:34:52.624Z,13.40
2023-04-16T04:37:22.256Z,13.40
2023-04-16T04:39:51.372Z,13.40
2023-04-16T04:42:20.840Z,13.40
2023-04-16T04:44:50.134Z,13.50
2023-04-16T04:47:19.356Z,13.70
2023-04-16T04:49:49.828Z,13.50
2023-04-16T04:52:20.747Z,13.50
2023-04-16T04:54:50.557Z,13.40
2023-04-16T04:57:19.488Z,13.50
2023-04-16T04:59:48.901Z,13.40
2023-04-16T05:02:18.521Z,13.50
2023-04-16T05:04:49.103Z,13.50
2023-04-16T05:07:18.241Z,13.50
2023-04-16T05:09:47.216Z,13.60
2023-04-16T05:12:16.185Z,13.60
2023-04-16T05:14:45.226Z,13.70
2023-04-16T05:17:14.113Z,13.70
2023-04-16T05:19:43.195Z,13.70
2023-04-16T05:22:13.986Z,13.70
2023-04-16T05:24:43.268Z,13.70
2023-04-16T05:27:12.214Z,13.70
2023-04-16T05:29:41.224Z,13.70
2023-04-16T05:32:10.492Z,13.70
2023-04-16T05:34:39.464Z,13.80
2023-04-16T05:37:08.422Z,13.80
2023-04-16T05:39:38.848Z,13.90
2023-04-16T05:42:07.847Z,14.00
2023-04-16T05:44:36.808Z,14.00
2023-04-16T05:47:07.565Z,14.10
2023-04-16T05:49:36.662Z,14.10
2023-04-16T05:52:05.928Z,14.20
2023-04-16T05:54:35.029Z,14.20
2023-04-16T05:57:05.942Z,14.30
2023-04-16T05:59:35.056Z,14.30
2023-04-16T06:02:04.156Z,14.40
2023-04-16T06:04:33.142Z,14.70
2023-04-16T06:07:02.201Z,14.60
2023-04-16T06:09:31.815Z,14.60
2023-04-16T06:12:01.333Z,14.70
2023-04-16T06:14:32.049Z,14.70
2023-04-16T06:17:01.583Z,14.80
2023-04-16T06:19:30.626Z,14.80
2023-04-16T06:21:59.823Z,14.90
2023-04-16T06:24:28.889Z,14.90
2023-04-16T06:26:58.068Z,15.00
2023-04-16T06:29:36.951Z,15.00
2023-04-16T06:32:11.204Z,15.10
2023-04-16T06:34:40.976Z,15.10
2023-04-16T06:37:10.799Z,15.10
2023-04-16T06:39:39.901Z,15.10
2023-04-16T06:42:13.432Z,15.00
2023-04-16T06:44:42.695Z,15.20
2023-04-16T06:47:13.427Z,15.20
2023-04-16T06:49:42.402Z,15.20
2023-04-16T06:52:11.445Z,15.20
2023-04-16T06:54:40.832Z,15.20
2023-04-16T06:57:09.792Z,15.30
2023-04-16T06:59:38.902Z,15.30
2023-04-16T07:02:09.222Z,15.30
2023-04-16T07:04:39.800Z,15.30
2023-04-16T07:07:08.835Z,15.40
2023-04-16T07:09:38.015Z,15.40
2023-04-16T07:12:07.406Z,15.50
2023-04-16T07:14:36.463Z,15.60
2023-04-16T07:17:05.869Z,15.60
2023-04-16T07:19:35.498Z,15.70
2023-04-16T07:22:06.282Z,15.80
2023-04-16T07:24:36.073Z,15.90
2023-04-16T07:27:05.280Z,15.80
2023-04-16T07:29:34.232Z,16.10
2023-04-16T07:32:03.499Z,16.20
2023-04-16T07:34:32.560Z,16.30
2023-04-16T07:37:01.520Z,16.40
2023-04-16T07:39:31.931Z,16.50
2023-04-16T07:42:01.015Z,16.60
2023-04-16T07:44:29.964Z,16.80
2023-04-16T07:46:59.088Z,16.90
2023-04-16T07:49:28.118Z,17.10
2023-04-16T07:51:57.302Z,17.20
2023-04-16T07:54:28.865Z,17.30
2023-04-16T07:56:59.670Z,17.50
2023-04-16T07:59:47.368Z,17.50
2023-04-16T08:02:17.542Z,17.70
2023-04-16T08:04:46.967Z,17.80
2023-04-16T08:07:16.108Z,17.90
2023-04-16T08:09:54.874Z,17.90
2023-04-16T08:12:25.611Z,18.00
2023-04-16T08:14:54.634Z,18.10
2023-04-16T08:17:24.647Z,18.10
2023-04-16T08:19:54.438Z,18.20
2023-04-16T08:22:23.912Z,18.20
2023-04-16T08:24:52.861Z,18.30
2023-04-16T08:27:21.800Z,18.30
2023-04-16T08:29:52.260Z,18.30
2023-04-16T08:32:21.619Z,18.30
2023-04-16T08:34:50.773Z,18.40
2023-04-16T08:37:19.687Z,18.50
2023-04-16T08:39:48.756Z,18.50
2023-04-16T08:42:26.659Z,18.50
2023-04-16T08:45:07.822Z,18.50
2023-04-16T08:47:38.293Z,18.60
2023-04-16T08:50:10.411Z,18.60
2023-04-16T08:52:44.542Z,18.70
2023-04-16T08:55:15.591Z,18.70
2023-04-16T08:57:49.948Z,18.80
2023-04-16T09:00:21.922Z,18.90
2023-04-16T09:02:52.411Z,19.00
2023-04-16T09:05:25.962Z,19.10
2023-04-16T09:07:55.807Z,19.20
2023-04-16T09:10:26.474Z,19.30
2023-04-16T09:12:57.558Z,19.50
2023-04-16T09:15:46.557Z,19.60
2023-04-16T09:18:15.423Z,19.80
2023-04-16T09:20:44.582Z,20.00
2023-04-16T09:23:13.658Z,20.30
2023-04-16T09:25:42.618Z,20.50
2023-04-16T09:28:11.927Z,20.60
2023-04-16T09:30:41.282Z,20.60
2023-04-16T09:33:23.209Z,20.60
2023-04-16T09:35:54.361Z,20.60
2023-04-16T09:38:23.798Z,20.60
2023-04-16T09:41:08.562Z,20.60
2023-04-16T09:43:38.368Z,20.60
2023-04-16T09:46:08.582Z,20.60
2023-04-16T09:48:39.241Z,20.60
2023-04-16T09:51:09.538Z,20.60
2023-04-16T09:53:38.733Z,20.60
2023-04-16T09:56:09.163Z,20.50
2023-04-16T09:58:39.064Z,20.50
2023-04-16T10:01:10.097Z,20.50
2023-04-16T10:03:41.726Z,20.50
2023-04-16T10:06:16.701Z,20.50
2023-04-16T10:08:47.881Z,20.50
2023-04-16T10:11:19.230Z,20.60
2023-04-16T10:13:48.774Z,20.60
2023-04-16T10:16:18.068Z,20.60
2023-04-16T10:18:49.036Z,20.70
2023-04-16T10:21:36.798Z,20.70
2023-04-16T10:24:06.438Z,20.70
2023-04-16T10:26:36.738Z,20.80
2023-04-16T10:29:08.196Z,20.80
2023-04-16T10:31:39.128Z,20.90
2023-04-16T10:34:11.762Z,20.90
2023-04-16T10:36:41.425Z,20.90
2023-04-16T10:39:15.531Z,21.00
2023-04-16T10:42:12.017Z,21.00
2023-04-16T10:44:44.941Z,21.00
2023-04-16T10:47:15.978Z,21.00
2023-04-16T10:49:49.130Z,21.10
2023-04-16T10:52:18.823Z,21.10
2023-04-16T10:54:49.381Z,21.10
2023-04-16T10:57:23.317Z,21.20
2023-04-16T10:59:53.361Z,21.20
2023-04-16T11:02:23.322Z,21.30
2023-04-16T11:04:59.128Z,21.40
2023-04-16T11:07:36.174Z,21.50
2023-04-16T11:10:14.160Z,21.60
2023-04-16T11:12:45.102Z,21.70
2023-04-16T11:15:15.967Z,21.70
2023-04-16T11:17:46.899Z,21.70
2023-04-16T11:20:22.279Z,21.70
2023-04-16T11:22:53.391Z,21.70
2023-04-16T11:25:23.335Z,21.70
2023-04-16T11:27:52.975Z,21.70
2023-04-16T11:30:30.873Z,21.80
2023-04-16T11:32:59.965Z,21.90
2023-04-16T11:35:30.698Z,22.00
2023-04-16T11:38:00.340Z,22.00
2023-04-16T11:40:32.396Z,22.00
2023-04-16T11:43:04.471Z,22.10
2023-04-16T11:45:33.595Z,22.10
2023-04-16T11:48:02.629Z,22.20
2023-04-16T11:50:33.273Z,22.20
2023-04-16T11:53:06.530Z,22.20
2023-04-16T11:55:46.088Z,22.30
2023-04-16T11:58:17.000Z,22.30
2023-04-16T12:00:46.887Z,22.40
2023-04-16T12:03:16.035Z,22.40
2023-04-16T12:05:47.508Z,22.50
2023-04-16T12:08:31.099Z,22.60
2023-04-16T12:11:00.333Z,22.80
2023-04-16T12:13:29.295Z,22.90
2023-04-16T12:15:58.931Z,23.10
2023-04-16T12:18:28.563Z,23.30
2023-04-16T12:20:59.055Z,23.50
2023-04-16T12:23:30.187Z,23.60
2023-04-16T12:26:02.833Z,23.80
2023-04-16T12:28:33.440Z,24.00
2023-04-16T12:31:03.148Z,24.10
2023-04-16T12:33:32.426Z,24.30
2023-04-16T12:36:04.821Z,24.50
2023-04-16T12:38:34.020Z,24.70
2023-04-16T12:41:04.747Z,24.80
2023-04-16T12:43:33.937Z,25.10
2023-04-16T12:46:04.262Z,25.40
2023-04-16T12:48:34.130Z,25.70
2023-04-16T12:51:07.729Z,25.90
2023-04-16T12:53:36.930Z,25.90
2023-04-16T12:56:06.158Z,25.90
2023-04-16T12:58:35.358Z,25.80
2023-04-16T13:01:04.360Z,25.70
2023-04-16T13:06:07.033Z,25.40
2023-04-16T13:08:36.233Z,25.30
2023-04-16T13:11:05.377Z,25.20
2023-04-16T13:13:34.359Z,25.10
2023-04-16T13:16:06.902Z,25.20
2023-04-16T13:18:38.216Z,25.20
2023-04-16T13:21:08.754Z,25.20
2023-04-16T13:23:37.912Z,25.30
2023-04-16T13:26:06.871Z,25.30
2023-04-16T13:28:35.804Z,25.50
2023-04-16T13:31:05.947Z,25.60
2023-04-16T13:33:35.243Z,25.70
2023-04-16T13:36:04.221Z,25.90
2023-04-16T13:38:34.668Z,26.10
2023-04-16T13:41:04.039Z,26.20
2023-04-16T13:43:33.143Z,26.30
2023-04-16T13:46:02.362Z,26.50
2023-04-16T13:48:31.806Z,26.50
2023-04-16T13:51:03.894Z,26.60
2023-04-16T13:53:34.761Z,26.60
2023-04-16T13:56:05.927Z,26.70
2023-04-16T13:58:35.616Z,26.60
2023-04-16T14:01:06.017Z,26.50
2023-04-16T14:03:38.136Z,26.40
2023-04-16T14:06:07.493Z,26.50
2023-04-16T14:08:38.660Z,26.40
2023-04-16T14:11:09.355Z,26.60
2023-04-16T14:13:57.252Z,26.60
2023-04-16T14:16:26.446Z,26.60
2023-04-16T14:18:55.538Z,26.50
2023-04-16T14:21:24.793Z,26.40
2023-04-16T14:23:55.659Z,26.50
2023-04-16T14:26:24.968Z,26.40
2023-04-16T14:28:54.149Z,26.40
2023-04-16T14:31:23.638Z,26.30
2023-04-16T14:33:52.763Z,26.30
2023-04-16T14:36:21.956Z,26.20
2023-04-16T14:38:51.034Z,26.10
2023-04-16T14:41:21.730Z,26.00
2023-04-16T14:43:50.714Z,25.80
2023-04-16T14:46:19.747Z,25.70
2023-04-16T14:48:48.947Z,25.50
2023-04-16T14:51:18.144Z,25.40
2023-04-16T14:53:47.148Z,25.30
2023-04-16T14:56:16.153Z,25.10
2023-04-16T14:58:46.615Z,25.00
2023-04-16T15:01:15.998Z,24.90
2023-04-16T15:03:45.189Z,25.00
2023-04-16T15:06:14.720Z,25.00
2023-04-16T15:08:43.828Z,25.00
2023-04-16T15:11:12.716Z,25.00
2023-04-16T15:13:41.614Z,25.10
2023-04-16T15:16:12.014Z,25.10
2023-04-16T15:18:41.044Z,25.10
2023-04-16T15:21:12.304Z,25.10
2023-04-16T15:23:41.631Z,25.20
2023-04-16T15:26:22.435Z,25.10
2023-04-16T15:28:52.604Z,25.10
2023-04-16T15:31:23.181Z,25.00
2023-04-16T15:33:52.375Z,25.00
2023-04-16T15:36:21.313Z,24.90
2023-04-16T15:38:50.377Z,24.80
2023-04-16T15:41:19.518Z,24.70
2023-04-16T15:43:48.474Z,24.70
2023-04-16T15:46:17.718Z,24.60
2023-04-16T15:49:07.066Z,24.50
2023-04-16T15:51:36.238Z,24.40
2023-04-16T15:54:05.877Z,24.30
2023-04-16T15:56:35.003Z,24.30
2023-04-16T15:59:04.574Z,24.20
2023-04-16T16:01:33.796Z,24.10
2023-04-16T16:04:09.986Z,24.10
2023-04-16T16:06:39.358Z,24.00
2023-04-16T16:09:08.924Z,23.90
2023-04-16T16:11:39.988Z,23.80
2023-04-16T16:14:09.501Z,23.80
2023-04-16T16:16:39.820Z,23.70
2023-04-16T16:19:11.565Z,23.60
2023-04-16T16:21:41.339Z,23.50
2023-04-16T16:24:10.479Z,23.40
2023-04-16T16:26:39.611Z,23.30
2023-04-16T16:29:11.592Z,23.20
2023-04-16T16:31:41.119Z,23.10
2023-04-16T16:34:19.902Z,23.00
2023-04-16T16:36:50.858Z,22.90
2023-04-16T16:39:24.529Z,22.80
2023-04-16T16:41:53.743Z,22.70
2023-04-16T16:44:23.175Z,22.60
2023-04-16T16:46:52.632Z,22.60
2023-04-16T16:49:23.306Z,22.50
2023-04-16T16:51:52.504Z,22.50
2023-04-16T16:54:21.440Z,22.40
2023-04-16T16:56:50.398Z,22.30
2023-04-16T16:59:19.568Z,22.30
2023-04-16T17:01:51.891Z,22.20
2023-04-16T17:04:24.197Z,22.20
2023-04-16T17:06:53.404Z,22.10
2023-04-16T17:09:22.473Z,22.00
2023-04-16T17:11:57.981Z,22.00
2023-04-16T17:14:27.186Z,21.90
2023-04-16T17:16:56.272Z,21.90
2023-04-16T17:19:30.952Z,21.90
2023-04-16T17:22:00.371Z,21.80
2023-04-16T17:24:29.901Z,21.70
2023-04-16T17:26:58.893Z,21.70
2023-04-16T17:29:28.289Z,21.60
2023-04-16T17:31:58.074Z,21.50
2023-04-16T17:34:30.039Z,21.40
2023-04-16T17:36:59.210Z,21.40
2023-04-16T17:39:28.552Z,21.30
2023-04-16T17:41:58.823Z,21.20
2023-04-16T17:44:29.854Z,21.10
2023-04-16T17:46:59.647Z,21.00
2023-04-16T17:49:37.694Z,20.90
2023-04-16T17:52:07.339Z,20.80
2023-04-16T17:54:36.949Z,20.70
2023-04-16T17:57:06.275Z,20.60
2023-04-16T17:59:38.321Z,20.50
2023-04-16T18:02:07.822Z,20.40
2023-04-16T18:04:38.912Z,20.30
2023-04-16T18:07:08.768Z,20.20
2023-04-16T18:09:38.038Z,20.10
2023-04-16T18:12:07.844Z,20.10
2023-04-16T18:14:39.955Z,19.90
2023-04-16T18:17:13.427Z,20.00
2023-04-16T18:19:46.024Z,19.90
2023-04-16T18:22:17.203Z,19.90
2023-04-16T18:24:46.833Z,19.80
2023-04-16T18:27:17.065Z,19.70
2023-04-16T18:29:46.574Z,19.70
2023-04-16T18:32:17.390Z,19.70
2023-04-16T18:34:49.125Z,19.60
2023-04-16T18:37:18.402Z,19.50
2023-04-16T18:39:47.852Z,19.50
2023-04-16T18:42:16.916Z,19.40
2023-04-16T18:44:45.949Z,19.40
2023-04-16T18:47:15.018Z,19.30
2023-04-16T18:49:46.451Z,19.30
2023-04-16T18:52:17.642Z,19.20
2023-04-16T18:54:47.601Z,19.10
2023-04-16T18:57:16.685Z,19.10
2023-04-16T18:59:46.057Z,19.00
2023-04-16T19:02:15.738Z,18.90
2023-04-16T19:04:44.885Z,18.80
2023-04-16T19:07:14.188Z,18.80
2023-04-16T19:09:44.819Z,18.70
2023-04-16T19:12:14.182Z,18.60
2023-04-16T19:14:46.023Z,18.60
2023-04-16T19:17:15.965Z,18.50
2023-04-16T19:19:45.024Z,18.50
2023-04-16T19:22:16.061Z,18.40
2023-04-16T19:24:46.621Z,18.40
2023-04-16T19:27:17.131Z,18.30
2023-04-16T19:29:50.006Z,18.20
2023-04-16T19:32:19.566Z,18.20
2023-04-16T19:34:49.146Z,18.10
2023-04-16T19:37:18.676Z,18.10
2023-04-16T19:39:50.180Z,18.00
2023-04-16T19:42:19.762Z,18.00
2023-04-16T19:44:48.858Z,17.90
2023-04-16T19:47:21.369Z,17.90
2023-04-16T19:49:51.003Z,17.80
2023-04-16T19:52:20.472Z,17.80
2023-04-16T19:54:51.347Z,17.80
2023-04-16T19:57:22.001Z,17.70
2023-04-16T19:59:52.140Z,17.70
2023-04-16T20:02:23.242Z,17.70
2023-04-16T20:04:56.204Z,17.60
2023-04-16T20:07:44.867Z,17.70
2023-04-16T20:10:15.512Z,17.60
2023-04-16T20:12:44.519Z,17.50
2023-04-16T20:15:13.963Z,17.50
2023-04-16T20:17:43.199Z,17.40
2023-04-16T20:20:16.277Z,17.40
2023-04-16T20:22:45.655Z,17.40
2023-04-16T20:25:19.240Z,17.30
2023-04-16T20:27:48.723Z,17.20
2023-04-16T20:30:17.744Z,17.20
2023-04-16T20:32:46.886Z,17.20
2023-04-16T20:35:16.040Z,17.10
2023-04-16T20:37:45.030Z,17.10
2023-04-16T20:40:24.919Z,17.10
2023-04-16T20:42:54.763Z,17.00
2023-04-16T20:45:24.496Z,17.00
2023-04-16T20:47:53.877Z,16.90
2023-04-16T20:50:23.080Z,17.10
2023-04-16T20:52:52.051Z,17.10
2023-04-16T20:55:22.907Z,17.10
2023-04-16T20:57:52.087Z,17.10
2023-04-16T21:00:21.818Z,17.10
2023-04-16T21:02:51.061Z,17.10
2023-04-16T21:05:21.473Z,17.10
2023-04-16T21:07:50.808Z,17.10
2023-04-16T21:10:21.642Z,17.10
2023-04-16T21:12:51.006Z,17.00
2023-04-16T21:15:23.848Z,17.00
2023-04-16T21:17:53.061Z,16.90
2023-04-16T21:20:22.049Z,16.90
2023-04-16T21:22:55.328Z,16.90
2023-04-16T21:25:26.001Z,16.90
2023-04-16T21:27:55.277Z,16.80
2023-04-16T21:30:24.323Z,16.80
2023-04-16T21:32:55.473Z,16.80
2023-04-16T21:35:24.506Z,16.80
2023-04-16T21:37:53.442Z,16.70
2023-04-16T21:40:22.789Z,16.70
2023-04-16T21:42:53.564Z,16.70
2023-04-16T21:45:22.636Z,16.70
2023-04-16T21:47:51.745Z,16.60
2023-04-16T21:50:20.936Z,16.60
2023-04-16T21:52:50.071Z,16.60
2023-04-16T21:55:19.458Z,16.60
2023-04-16T21:57:48.520Z,16.60
2023-04-16T22:00:19.748Z,16.60
2023-04-16T22:02:48.942Z,16.60
2023-04-16T22:05:20.099Z,16.60
2023-04-16T22:07:49.315Z,16.80
2023-04-16T22:10:18.377Z,16.60
2023-04-16T22:12:47.416Z,16.60
2023-04-16T22:15:18.644Z,16.60
2023-04-16T22:17:48.670Z,16.60
2023-04-16T22:20:18.390Z,16.60
2023-04-16T22:22:48.252Z,16.60
2023-04-16T22:25:18.053Z,16.60
2023-04-16T22:27:47.380Z,16.60
2023-04-16T22:30:18.227Z,16.60
2023-04-16T22:32:48.183Z,16.60
2023-04-16T22:35:18.099Z,16.60
2023-04-16T22:37:47.742Z,16.60
2023-04-16T22:40:18.453Z,16.50
2023-04-16T22:42:48.017Z,16.50
2023-04-16T22:45:23.357Z,16.50
2023-04-16T22:47:52.395Z,16.50
2023-04-16T22:50:22.814Z,16.60
2023-04-16T22:52:51.895Z,16.60
2023-04-16T22:55:21.039Z,16.60
2023-04-16T22:57:50.111Z,16.70
2023-04-16T23:00:21.471Z,16.70
2023-04-16T23:02:50.704Z,16.80
2023-04-16T23:05:19.977Z,16.80
2023-04-16T23:07:48.963Z,16.80
2023-04-16T23:10:18.182Z,16.70
2023-04-16T23:12:47.680Z,16.70
2023-04-16T23:15:16.698Z,16.70
2023-04-16T23:17:47.450Z,16.60
2023-04-16T23:20:16.489Z,16.60
2023-04-16T23:22:45.426Z,16.60
2023-04-16T23:25:14.511Z,16.60
2023-04-16T23:27:43.617Z,16.60
2023-04-16T23:30:13.306Z,16.60
2023-04-16T23:32:42.321Z,16.60
2023-04-16T23:35:13.096Z,16.60
2023-04-16T23:37:42.418Z,16.60
2023-04-16T23:40:12.417Z,16.50
2023-04-16T23:42:41.378Z,16.50
2023-04-16T23:45:11.493Z,16.50
2023-04-16T23:47:40.645Z,16.40
2023-04-16T23:50:11.874Z,16.40
2023-04-16T23:52:40.903Z,16.40
2023-04-16T23:55:10.494Z,16.40
2023-04-16T23:57:39.478Z,16.30
